Siros, Greece
Current Conditions -  °F | °C
As of 3:50 PM on Friday 24 Oct 2014 (Local Time) from LGSO Reporting Station
Light Rain Light Rain  
Wind Chill: 64°   Ceiling: NA
Heat Index: 64°   Visibility: NA
Dew Point: 57°   Wind: 24mph
Humidity: 77%   Direction: 160°SSE
Pressure: 29.71"   Gusts: 36mph
Location:  37.45°N, 24.93°E
Report Text: LGSO 241250Z AUTO 16021G31KT //// -RA ////// 18/14 Q1006 RE//
Loading
Personal Weather Stations






























Interactive Weather Map New forecast layout! Learn more

10-Day Weather Forecast

Advertisements
Track Severe Weather on mobile